sensor_id;sensor_type;location;lat;lon;timestamp;P1;durP1;ratioP1;P2;durP2;ratioP2
56667;SDS011;42542;48.360;10.958;2023-11-21T00:00:24;7.25;;;1.33;;
56667;SDS011;42542;48.360;10.958;2023-11-21T00:03:27;6.53;;;1.15;;
56667;SDS011;42542;48.360;10.958;2023-11-21T00:06:29;6.67;;;1.00;;
56667;SDS011;42542;48.360;10.958;2023-11-21T00:09:32;4.57;;;1.10;;
56667;SDS011;42542;48.360;10.958;2023-11-21T00:12:34;4.85;;;1.15;;
56667;SDS011;42542;48.360;10.958;2023-11-21T00:15:36;5.23;;;0.90;;
56667;SDS011;42542;48.360;10.958;2023-11-21T00:18:38;4.45;;;0.85;;
56667;SDS011;42542;48.360;10.958;2023-11-21T00:21:40;3.78;;;0.90;;
56667;SDS011;42542;48.360;10.958;2023-11-21T00:24:45;3.60;;;0.90;;
56667;SDS011;42542;48.360;10.958;2023-11-21T00:27:47;7.95;;;1.27;;
56667;SDS011;42542;48.360;10.958;2023-11-21T00:30:49;6.30;;;1.20;;
56667;SDS011;42542;48.360;10.958;2023-11-21T00:33:51;7.10;;;1.30;;
56667;SDS011;42542;48.360;10.958;2023-11-21T00:36:53;6.70;;;0.90;;
56667;SDS011;42542;48.360;10.958;2023-11-21T00:39:55;5.53;;;1.20;;
56667;SDS011;42542;48.360;10.958;2023-11-21T00:42:57;4.13;;;0.90;;
56667;SDS011;42542;48.360;10.958;2023-11-21T00:46:03;8.07;;;1.07;;
56667;SDS011;42542;48.360;10.958;2023-11-21T00:49:05;3.65;;;0.80;;
56667;SDS011;42542;48.360;10.958;2023-11-21T00:52:08;4.97;;;1.00;;
56667;SDS011;42542;48.360;10.958;2023-11-21T00:55:09;6.28;;;1.02;;
56667;SDS011;42542;48.360;10.958;2023-11-21T00:58:13;4.47;;;0.85;;
56667;SDS011;42542;48.360;10.958;2023-11-21T01:01:16;4.15;;;0.75;;
56667;SDS011;42542;48.360;10.958;2023-11-21T01:04:18;5.32;;;0.90;;
56667;SDS011;42542;48.360;10.958;2023-11-21T01:07:20;4.83;;;0.90;;
56667;SDS011;42542;48.360;10.958;2023-11-21T01:10:22;5.53;;;0.80;;
56667;SDS011;42542;48.360;10.958;2023-11-21T01:13:24;5.78;;;0.90;;
56667;SDS011;42542;48.360;10.958;2023-11-21T01:16:30;4.23;;;0.90;;
56667;SDS011;42542;48.360;10.958;2023-11-21T01:19:34;4.55;;;0.70;;
56667;SDS011;42542;48.360;10.958;2023-11-21T01:22:36;4.68;;;0.80;;
56667;SDS011;42542;48.360;10.958;2023-11-21T01:25:38;4.68;;;0.90;;
56667;SDS011;42542;48.360;10.958;2023-11-21T01:28:40;4.95;;;0.80;;
56667;SDS011;42542;48.360;10.958;2023-11-21T01:31:42;7.10;;;1.02;;
56667;SDS011;42542;48.360;10.958;2023-11-21T01:34:45;7.07;;;0.88;;
56667;SDS011;42542;48.360;10.958;2023-11-21T01:37:47;5.77;;;0.90;;
56667;SDS011;42542;48.360;10.958;2023-11-21T01:40:50;3.00;;;0.65;;
56667;SDS011;42542;48.360;10.958;2023-11-21T01:43:52;3.75;;;0.70;;
56667;SDS011;42542;48.360;10.958;2023-11-21T01:46:55;2.37;;;0.50;;
56667;SDS011;42542;48.360;10.958;2023-11-21T01:49:59;2.97;;;0.55;;
56667;SDS011;42542;48.360;10.958;2023-11-21T01:53:02;4.55;;;0.80;;
56667;SDS011;42542;48.360;10.958;2023-11-21T01:56:05;3.38;;;0.73;;
56667;SDS011;42542;48.360;10.958;2023-11-21T01:59:10;2.85;;;0.70;;
56667;SDS011;42542;48.360;10.958;2023-11-21T02:02:14;3.88;;;0.80;;
56667;SDS011;42542;48.360;10.958;2023-11-21T02:05:17;5.07;;;0.90;;
56667;SDS011;42542;48.360;10.958;2023-11-21T02:08:20;3.87;;;0.70;;
56667;SDS011;42542;48.360;10.958;2023-11-21T02:11:22;3.60;;;0.90;;
56667;SDS011;42542;48.360;10.958;2023-11-21T02:14:23;3.95;;;0.80;;
56667;SDS011;42542;48.360;10.958;2023-11-21T02:17:28;2.23;;;0.70;;
56667;SDS011;42542;48.360;10.958;2023-11-21T02:20:31;5.10;;;1.15;;
56667;SDS011;42542;48.360;10.958;2023-11-21T02:23:37;5.68;;;0.90;;
56667;SDS011;42542;48.360;10.958;2023-11-21T02:26:43;4.88;;;0.90;;
56667;SDS011;42542;48.360;10.958;2023-11-21T02:29:45;3.85;;;1.00;;
56667;SDS011;42542;48.360;10.958;2023-11-21T02:32:47;5.22;;;0.80;;
56667;SDS011;42542;48.360;10.958;2023-11-21T02:35:50;4.50;;;0.80;;
56667;SDS011;42542;48.360;10.958;2023-11-21T02:38:56;10.97;;;1.20;;
56667;SDS011;42542;48.360;10.958;2023-11-21T02:41:58;2.60;;;0.68;;
56667;SDS011;42542;48.360;10.958;2023-11-21T02:45:00;5.32;;;1.33;;
56667;SDS011;42542;48.360;10.958;2023-11-21T02:48:01;5.43;;;1.00;;
56667;SDS011;42542;48.360;10.958;2023-11-21T02:51:04;3.88;;;0.80;;
56667;SDS011;42542;48.360;10.958;2023-11-21T02:54:06;4.63;;;0.90;;
56667;SDS011;42542;48.360;10.958;2023-11-21T02:57:10;5.20;;;0.80;;
56667;SDS011;42542;48.360;10.958;2023-11-21T03:00:13;3.22;;;0.70;;
56667;SDS011;42542;48.360;10.958;2023-11-21T03:03:16;3.33;;;0.80;;
56667;SDS011;42542;48.360;10.958;2023-11-21T03:06:19;5.40;;;1.00;;
56667;SDS011;42542;48.360;10.958;2023-11-21T03:09:22;3.83;;;1.10;;
56667;SDS011;42542;48.360;10.958;2023-11-21T03:12:23;6.40;;;1.00;;
56667;SDS011;42542;48.360;10.958;2023-11-21T03:15:25;5.00;;;1.08;;
56667;SDS011;42542;48.360;10.958;2023-11-21T03:18:27;4.67;;;0.90;;
56667;SDS011;42542;48.360;10.958;2023-11-21T03:21:31;6.32;;;1.00;;
56667;SDS011;42542;48.360;10.958;2023-11-21T03:24:32;3.75;;;0.70;;
56667;SDS011;42542;48.360;10.958;2023-11-21T03:27:34;4.28;;;1.00;;
56667;SDS011;42542;48.360;10.958;2023-11-21T03:30:36;6.40;;;1.00;;
56667;SDS011;42542;48.360;10.958;2023-11-21T03:33:38;4.75;;;0.80;;
56667;SDS011;42542;48.360;10.958;2023-11-21T03:36:39;4.78;;;0.98;;
56667;SDS011;42542;48.360;10.958;2023-11-21T03:39:41;3.43;;;0.90;;
56667;SDS011;42542;48.360;10.958;2023-11-21T03:42:43;4.88;;;0.95;;
56667;SDS011;42542;48.360;10.958;2023-11-21T03:45:44;3.60;;;0.90;;
56667;SDS011;42542;48.360;10.958;2023-11-21T03:48:47;4.27;;;0.80;;
56667;SDS011;42542;48.360;10.958;2023-11-21T03:51:49;4.10;;;0.90;;
56667;SDS011;42542;48.360;10.958;2023-11-21T03:54:51;7.00;;;1.10;;
56667;SDS011;42542;48.360;10.958;2023-11-21T03:57:53;3.80;;;0.70;;
56667;SDS011;42542;48.360;10.958;2023-11-21T04:00:56;4.53;;;0.98;;
56667;SDS011;42542;48.360;10.958;2023-11-21T04:03:57;6.90;;;0.80;;
56667;SDS011;42542;48.360;10.958;2023-11-21T04:07:01;3.78;;;0.90;;
56667;SDS011;42542;48.360;10.958;2023-11-21T04:10:03;4.03;;;0.70;;
56667;SDS011;42542;48.360;10.958;2023-11-21T04:13:09;2.83;;;0.60;;
56667;SDS011;42542;48.360;10.958;2023-11-21T04:16:11;4.75;;;0.70;;
56667;SDS011;42542;48.360;10.958;2023-11-21T04:19:15;3.13;;;0.73;;
56667;SDS011;42542;48.360;10.958;2023-11-21T04:22:16;2.95;;;0.70;;
56667;SDS011;42542;48.360;10.958;2023-11-21T04:25:19;3.25;;;0.60;;
56667;SDS011;42542;48.360;10.958;2023-11-21T04:28:21;3.60;;;0.90;;
56667;SDS011;42542;48.360;10.958;2023-11-21T04:31:22;3.03;;;0.70;;
56667;SDS011;42542;48.360;10.958;2023-11-21T04:34:24;7.07;;;0.75;;
56667;SDS011;42542;48.360;10.958;2023-11-21T04:37:26;5.30;;;0.80;;
56667;SDS011;42542;48.360;10.958;2023-11-21T04:40:28;2.67;;;0.60;;
56667;SDS011;42542;48.360;10.958;2023-11-21T04:43:30;5.00;;;0.90;;
56667;SDS011;42542;48.360;10.958;2023-11-21T04:46:32;4.35;;;0.70;;
56667;SDS011;42542;48.360;10.958;2023-11-21T04:49:35;2.53;;;0.60;;
56667;SDS011;42542;48.360;10.958;2023-11-21T04:52:36;2.95;;;0.80;;
56667;SDS011;42542;48.360;10.958;2023-11-21T04:55:38;6.03;;;0.80;;
56667;SDS011;42542;48.360;10.958;2023-11-21T04:58:41;3.67;;;0.90;;
56667;SDS011;42542;48.360;10.958;2023-11-21T05:01:42;2.85;;;0.70;;
56667;SDS011;42542;48.360;10.958;2023-11-21T05:04:44;2.92;;;0.77;;
56667;SDS011;42542;48.360;10.958;2023-11-21T05:07:46;5.25;;;0.80;;
56667;SDS011;42542;48.360;10.958;2023-11-21T05:10:48;5.10;;;0.73;;
56667;SDS011;42542;48.360;10.958;2023-11-21T05:13:51;4.13;;;0.70;;
56667;SDS011;42542;48.360;10.958;2023-11-21T05:16:52;5.10;;;0.95;;
56667;SDS011;42542;48.360;10.958;2023-11-21T05:19:54;4.10;;;0.70;;
56667;SDS011;42542;48.360;10.958;2023-11-21T05:22:57;5.82;;;0.70;;
56667;SDS011;42542;48.360;10.958;2023-11-21T05:26:00;3.53;;;0.70;;
56667;SDS011;42542;48.360;10.958;2023-11-21T05:29:02;5.28;;;0.90;;
56667;SDS011;42542;48.360;10.958;2023-11-21T05:32:04;5.20;;;0.95;;
56667;SDS011;42542;48.360;10.958;2023-11-21T05:35:06;5.35;;;0.90;;
56667;SDS011;42542;48.360;10.958;2023-11-21T05:38:16;4.70;;;0.90;;
56667;SDS011;42542;48.360;10.958;2023-11-21T05:41:17;3.83;;;0.83;;
56667;SDS011;42542;48.360;10.958;2023-11-21T05:44:19;5.38;;;0.90;;
56667;SDS011;42542;48.360;10.958;2023-11-21T05:47:21;2.83;;;0.70;;
56667;SDS011;42542;48.360;10.958;2023-11-21T05:50:23;5.77;;;1.20;;
56667;SDS011;42542;48.360;10.958;2023-11-21T05:53:25;4.15;;;0.80;;
56667;SDS011;42542;48.360;10.958;2023-11-21T05:56:27;3.65;;;0.90;;
56667;SDS011;42542;48.360;10.958;2023-11-21T05:59:30;3.92;;;0.90;;
56667;SDS011;42542;48.360;10.958;2023-11-21T06:02:31;4.88;;;0.80;;
56667;SDS011;42542;48.360;10.958;2023-11-21T06:05:33;3.40;;;0.93;;
56667;SDS011;42542;48.360;10.958;2023-11-21T06:08:36;2.78;;;0.65;;
56667;SDS011;42542;48.360;10.958;2023-11-21T06:11:38;2.87;;;0.60;;
56667;SDS011;42542;48.360;10.958;2023-11-21T06:14:40;3.67;;;0.80;;
56667;SDS011;42542;48.360;10.958;2023-11-21T06:17:43;5.72;;;0.80;;
56667;SDS011;42542;48.360;10.958;2023-11-21T06:20:46;3.13;;;0.70;;
56667;SDS011;42542;48.360;10.958;2023-11-21T06:23:48;3.20;;;0.85;;
56667;SDS011;42542;48.360;10.958;2023-11-21T06:26:54;2.85;;;0.70;;
56667;SDS011;42542;48.360;10.958;2023-11-21T06:29:55;3.40;;;0.88;;
56667;SDS011;42542;48.360;10.958;2023-11-21T06:32:58;2.97;;;0.63;;
56667;SDS011;42542;48.360;10.958;2023-11-21T06:36:00;4.90;;;0.70;;
56667;SDS011;42542;48.360;10.958;2023-11-21T06:39:04;3.15;;;0.70;;
56667;SDS011;42542;48.360;10.958;2023-11-21T06:42:08;3.67;;;0.60;;
56667;SDS011;42542;48.360;10.958;2023-11-21T06:45:11;4.30;;;0.70;;
56667;SDS011;42542;48.360;10.958;2023-11-21T06:48:12;2.88;;;0.60;;
56667;SDS011;42542;48.360;10.958;2023-11-21T06:51:15;2.93;;;0.60;;
56667;SDS011;42542;48.360;10.958;2023-11-21T06:54:17;3.20;;;0.70;;
56667;SDS011;42542;48.360;10.958;2023-11-21T06:57:20;3.55;;;0.80;;
56667;SDS011;42542;48.360;10.958;2023-11-21T07:00:24;4.85;;;1.20;;
56667;SDS011;42542;48.360;10.958;2023-11-21T07:03:26;5.97;;;1.00;;
56667;SDS011;42542;48.360;10.958;2023-11-21T07:06:27;3.83;;;1.10;;
56667;SDS011;42542;48.360;10.958;2023-11-21T07:09:29;2.58;;;0.73;;
56667;SDS011;42542;48.360;10.958;2023-11-21T07:12:32;3.00;;;0.80;;
56667;SDS011;42542;48.360;10.958;2023-11-21T07:15:34;5.53;;;0.95;;
56667;SDS011;42542;48.360;10.958;2023-11-21T07:18:36;3.08;;;0.70;;
56667;SDS011;42542;48.360;10.958;2023-11-21T07:21:38;3.33;;;0.67;;
56667;SDS011;42542;48.360;10.958;2023-11-21T07:24:43;4.00;;;0.70;;
56667;SDS011;42542;48.360;10.958;2023-11-21T07:27:44;3.33;;;0.70;;
56667;SDS011;42542;48.360;10.958;2023-11-21T07:30:46;5.30;;;0.80;;
56667;SDS011;42542;48.360;10.958;2023-11-21T07:33:48;2.30;;;0.65;;
56667;SDS011;42542;48.360;10.958;2023-11-21T07:36:50;4.03;;;0.90;;
56667;SDS011;42542;48.360;10.958;2023-11-21T07:39:52;5.15;;;1.00;;
56667;SDS011;42542;48.360;10.958;2023-11-21T07:42:57;4.80;;;1.00;;
56667;SDS011;42542;48.360;10.958;2023-11-21T07:46:02;4.65;;;0.80;;
56667;SDS011;42542;48.360;10.958;2023-11-21T07:49:04;4.43;;;0.90;;
56667;SDS011;42542;48.360;10.958;2023-11-21T07:52:06;4.40;;;1.03;;
56667;SDS011;42542;48.360;10.958;2023-11-21T07:55:08;3.95;;;0.60;;
56667;SDS011;42542;48.360;10.958;2023-11-21T07:58:11;5.07;;;0.80;;
56667;SDS011;42542;48.360;10.958;2023-11-21T08:01:14;3.83;;;0.90;;
56667;SDS011;42542;48.360;10.958;2023-11-21T08:04:16;2.00;;;0.50;;
56667;SDS011;42542;48.360;10.958;2023-11-21T08:07:18;7.03;;;0.70;;
56667;SDS011;42542;48.360;10.958;2023-11-21T08:10:20;4.78;;;0.90;;
56667;SDS011;42542;48.360;10.958;2023-11-21T08:13:24;3.50;;;0.70;;
56667;SDS011;42542;48.360;10.958;2023-11-21T08:16:27;3.60;;;0.90;;
56667;SDS011;42542;48.360;10.958;2023-11-21T08:19:29;3.35;;;0.88;;
56667;SDS011;42542;48.360;10.958;2023-11-21T08:22:32;3.87;;;0.90;;
56667;SDS011;42542;48.360;10.958;2023-11-21T08:25:33;3.92;;;0.80;;
56667;SDS011;42542;48.360;10.958;2023-11-21T08:28:36;3.67;;;0.90;;
56667;SDS011;42542;48.360;10.958;2023-11-21T08:31:37;4.15;;;0.98;;
56667;SDS011;42542;48.360;10.958;2023-11-21T08:34:39;3.70;;;0.93;;
56667;SDS011;42542;48.360;10.958;2023-11-21T08:37:44;4.68;;;0.90;;
56667;SDS011;42542;48.360;10.958;2023-11-21T08:40:46;4.53;;;0.98;;
56667;SDS011;42542;48.360;10.958;2023-11-21T08:43:49;3.57;;;0.90;;
56667;SDS011;42542;48.360;10.958;2023-11-21T08:46:53;4.03;;;1.00;;
56667;SDS011;42542;48.360;10.958;2023-11-21T08:49:54;6.43;;;1.00;;
56667;SDS011;42542;48.360;10.958;2023-11-21T08:52:57;8.37;;;1.00;;
56667;SDS011;42542;48.360;10.958;2023-11-21T08:55:59;6.47;;;1.45;;
56667;SDS011;42542;48.360;10.958;2023-11-21T08:59:02;5.00;;;1.20;;
56667;SDS011;42542;48.360;10.958;2023-11-21T09:02:04;4.18;;;1.10;;
56667;SDS011;42542;48.360;10.958;2023-11-21T09:05:06;4.35;;;1.33;;
56667;SDS011;42542;48.360;10.958;2023-11-21T09:08:09;3.65;;;1.00;;
56667;SDS011;42542;48.360;10.958;2023-11-21T09:11:10;6.00;;;1.45;;
56667;SDS011;42542;48.360;10.958;2023-11-21T09:14:14;4.13;;;1.13;;
56667;SDS011;42542;48.360;10.958;2023-11-21T09:17:17;7.32;;;2.00;;
56667;SDS011;42542;48.360;10.958;2023-11-21T09:20:20;7.65;;;2.13;;
56667;SDS011;42542;48.360;10.958;2023-11-21T09:23:24;5.73;;;2.10;;
56667;SDS011;42542;48.360;10.958;2023-11-21T09:26:26;5.80;;;1.73;;
56667;SDS011;42542;48.360;10.958;2023-11-21T09:29:28;5.50;;;1.70;;
56667;SDS011;42542;48.360;10.958;2023-11-21T09:32:31;5.05;;;1.60;;
56667;SDS011;42542;48.360;10.958;2023-11-21T09:35:32;4.28;;;1.00;;
56667;SDS011;42542;48.360;10.958;2023-11-21T09:38:35;4.63;;;1.20;;
56667;SDS011;42542;48.360;10.958;2023-11-21T09:41:40;4.55;;;1.02;;
56667;SDS011;42542;48.360;10.958;2023-11-21T09:48:08;4.00;;;0.90;;
56667;SDS011;42542;48.360;10.958;2023-11-21T09:51:13;4.00;;;1.08;;
56667;SDS011;42542;48.360;10.958;2023-11-21T09:54:17;4.73;;;1.20;;
56667;SDS011;42542;48.360;10.958;2023-11-21T09:57:21;4.43;;;1.00;;
56667;SDS011;42542;48.360;10.958;2023-11-21T10:00:24;5.13;;;1.10;;
56667;SDS011;42542;48.360;10.958;2023-11-21T10:03:29;3.83;;;0.88;;
56667;SDS011;42542;48.360;10.958;2023-11-21T10:06:32;4.70;;;1.20;;
56667;SDS011;42542;48.360;10.958;2023-11-21T10:09:36;5.10;;;1.20;;
56667;SDS011;42542;48.360;10.958;2023-11-21T10:12:39;5.68;;;1.08;;
56667;SDS011;42542;48.360;10.958;2023-11-21T10:15:43;3.80;;;1.00;;
56667;SDS011;42542;48.360;10.958;2023-11-21T10:18:51;5.30;;;1.23;;
56667;SDS011;42542;48.360;10.958;2023-11-21T10:22:12;4.82;;;1.20;;
56667;SDS011;42542;48.360;10.958;2023-11-21T10:25:14;5.53;;;1.30;;
56667;SDS011;42542;48.360;10.958;2023-11-21T10:28:17;5.43;;;1.35;;
56667;SDS011;42542;48.360;10.958;2023-11-21T10:31:19;5.28;;;1.45;;
56667;SDS011;42542;48.360;10.958;2023-11-21T10:34:21;4.47;;;1.25;;
56667;SDS011;42542;48.360;10.958;2023-11-21T10:37:23;6.10;;;1.33;;
56667;SDS011;42542;48.360;10.958;2023-11-21T10:40:27;4.53;;;1.27;;
56667;SDS011;42542;48.360;10.958;2023-11-21T10:43:31;5.95;;;1.20;;
56667;SDS011;42542;48.360;10.958;2023-11-21T10:46:34;3.57;;;1.00;;
56667;SDS011;42542;48.360;10.958;2023-11-21T10:49:37;4.55;;;1.30;;
56667;SDS011;42542;48.360;10.958;2023-11-21T10:52:39;4.00;;;1.20;;
56667;SDS011;42542;48.360;10.958;2023-11-21T10:55:48;4.17;;;1.07;;
56667;SDS011;42542;48.360;10.958;2023-11-21T10:58:51;6.38;;;1.30;;
56667;SDS011;42542;48.360;10.958;2023-11-21T11:01:53;3.50;;;1.02;;
56667;SDS011;42542;48.360;10.958;2023-11-21T11:04:59;5.28;;;1.10;;
56667;SDS011;42542;48.360;10.958;2023-11-21T11:08:04;4.25;;;1.20;;
56667;SDS011;42542;48.360;10.958;2023-11-21T11:11:07;4.25;;;1.30;;
56667;SDS011;42542;48.360;10.958;2023-11-21T11:14:12;4.40;;;1.30;;
56667;SDS011;42542;48.360;10.958;2023-11-21T11:17:15;7.40;;;1.30;;
56667;SDS011;42542;48.360;10.958;2023-11-21T11:20:21;6.93;;;1.20;;
56667;SDS011;42542;48.360;10.958;2023-11-21T11:26:58;4.80;;;1.23;;
56667;SDS011;42542;48.360;10.958;2023-11-21T11:33:53;5.05;;;1.30;;
56667;SDS011;42542;48.360;10.958;2023-11-21T11:37:01;4.63;;;1.20;;
56667;SDS011;42542;48.360;10.958;2023-11-21T11:40:06;4.85;;;1.13;;
56667;SDS011;42542;48.360;10.958;2023-11-21T11:43:08;4.70;;;1.23;;
56667;SDS011;42542;48.360;10.958;2023-11-21T11:46:10;5.10;;;1.23;;
56667;SDS011;42542;48.360;10.958;2023-11-21T11:49:27;6.00;;;1.50;;
56667;SDS011;42542;48.360;10.958;2023-11-21T11:52:40;5.25;;;1.38;;
56667;SDS011;42542;48.360;10.958;2023-11-21T11:55:44;5.47;;;1.20;;
56667;SDS011;42542;48.360;10.958;2023-11-21T11:58:47;4.63;;;1.20;;
56667;SDS011;42542;48.360;10.958;2023-11-21T12:01:49;5.35;;;1.35;;
56667;SDS011;42542;48.360;10.958;2023-11-21T12:04:55;5.38;;;1.30;;
56667;SDS011;42542;48.360;10.958;2023-11-21T12:07:59;5.45;;;1.20;;
56667;SDS011;42542;48.360;10.958;2023-11-21T12:11:03;6.10;;;1.30;;
56667;SDS011;42542;48.360;10.958;2023-11-21T12:14:06;4.32;;;1.08;;
56667;SDS011;42542;48.360;10.958;2023-11-21T12:17:08;6.40;;;1.40;;
56667;SDS011;42542;48.360;10.958;2023-11-21T12:20:14;5.77;;;1.30;;
56667;SDS011;42542;48.360;10.958;2023-11-21T12:23:21;5.22;;;1.40;;
56667;SDS011;42542;48.360;10.958;2023-11-21T12:26:23;5.03;;;1.42;;
56667;SDS011;42542;48.360;10.958;2023-11-21T12:29:25;5.57;;;1.30;;
56667;SDS011;42542;48.360;10.958;2023-11-21T12:32:27;5.72;;;1.15;;
56667;SDS011;42542;48.360;10.958;2023-11-21T12:35:31;5.22;;;1.50;;
56667;SDS011;42542;48.360;10.958;2023-11-21T12:38:37;5.75;;;1.30;;
56667;SDS011;42542;48.360;10.958;2023-11-21T12:41:40;7.53;;;1.95;;
56667;SDS011;42542;48.360;10.958;2023-11-21T12:44:42;5.47;;;1.80;;
56667;SDS011;42542;48.360;10.958;2023-11-21T12:47:47;4.78;;;1.60;;
56667;SDS011;42542;48.360;10.958;2023-11-21T12:50:54;7.40;;;1.70;;
56667;SDS011;42542;48.360;10.958;2023-11-21T12:53:57;6.22;;;2.38;;
56667;SDS011;42542;48.360;10.958;2023-11-21T12:56:59;5.10;;;1.80;;
56667;SDS011;42542;48.360;10.958;2023-11-21T13:00:03;5.33;;;1.53;;
56667;SDS011;42542;48.360;10.958;2023-11-21T13:03:15;6.10;;;1.90;;
56667;SDS011;42542;48.360;10.958;2023-11-21T13:06:21;5.43;;;1.98;;
56667;SDS011;42542;48.360;10.958;2023-11-21T13:09:26;8.23;;;2.80;;
56667;SDS011;42542;48.360;10.958;2023-11-21T13:12:29;7.30;;;2.00;;
56667;SDS011;42542;48.360;10.958;2023-11-21T13:15:34;8.98;;;2.75;;
56667;SDS011;42542;48.360;10.958;2023-11-21T13:18:49;7.18;;;2.15;;
56667;SDS011;42542;48.360;10.958;2023-11-21T13:21:51;8.20;;;3.80;;
56667;SDS011;42542;48.360;10.958;2023-11-21T13:24:54;7.57;;;3.15;;
56667;SDS011;42542;48.360;10.958;2023-11-21T13:27:59;7.38;;;2.10;;
56667;SDS011;42542;48.360;10.958;2023-11-21T13:31:05;3.97;;;1.00;;
56667;SDS011;42542;48.360;10.958;2023-11-21T13:34:24;4.85;;;1.15;;
56667;SDS011;42542;48.360;10.958;2023-11-21T13:37:34;5.47;;;1.42;;
56667;SDS011;42542;48.360;10.958;2023-11-21T13:40:37;4.75;;;1.20;;
56667;SDS011;42542;48.360;10.958;2023-11-21T13:43:48;3.10;;;0.70;;
56667;SDS011;42542;48.360;10.958;2023-11-21T13:46:59;4.72;;;1.00;;
56667;SDS011;42542;48.360;10.958;2023-11-21T13:50:02;3.55;;;1.00;;
56667;SDS011;42542;48.360;10.958;2023-11-21T13:53:04;2.73;;;0.80;;
56667;SDS011;42542;48.360;10.958;2023-11-21T13:56:19;4.45;;;1.40;;
56667;SDS011;42542;48.360;10.958;2023-11-21T13:59:26;3.75;;;1.10;;
56667;SDS011;42542;48.360;10.958;2023-11-21T14:02:30;5.43;;;0.70;;
56667;SDS011;42542;48.360;10.958;2023-11-21T14:05:39;3.00;;;0.70;;
56667;SDS011;42542;48.360;10.958;2023-11-21T14:08:42;3.53;;;0.90;;
56667;SDS011;42542;48.360;10.958;2023-11-21T14:11:44;2.55;;;0.70;;
56667;SDS011;42542;48.360;10.958;2023-11-21T14:14:49;4.15;;;1.00;;
56667;SDS011;42542;48.360;10.958;2023-11-21T14:17:51;6.95;;;2.08;;
56667;SDS011;42542;48.360;10.958;2023-11-21T14:20:53;11.75;;;3.92;;
56667;SDS011;42542;48.360;10.958;2023-11-21T14:23:55;8.53;;;2.63;;
56667;SDS011;42542;48.360;10.958;2023-11-21T14:26:57;11.10;;;3.60;;
56667;SDS011;42542;48.360;10.958;2023-11-21T14:29:59;12.13;;;4.30;;
56667;SDS011;42542;48.360;10.958;2023-11-21T14:33:04;9.67;;;3.47;;
56667;SDS011;42542;48.360;10.958;2023-11-21T14:36:06;6.97;;;1.90;;
56667;SDS011;42542;48.360;10.958;2023-11-21T14:39:11;9.93;;;3.88;;
56667;SDS011;42542;48.360;10.958;2023-11-21T14:42:24;12.10;;;4.18;;
56667;SDS011;42542;48.360;10.958;2023-11-21T14:45:32;7.55;;;2.10;;
56667;SDS011;42542;48.360;10.958;2023-11-21T14:48:34;7.20;;;2.25;;
56667;SDS011;42542;48.360;10.958;2023-11-21T14:51:51;11.38;;;3.83;;
56667;SDS011;42542;48.360;10.958;2023-11-21T14:55:02;14.67;;;4.90;;
56667;SDS011;42542;48.360;10.958;2023-11-21T14:58:22;12.82;;;4.53;;
56667;SDS011;42542;48.360;10.958;2023-11-21T15:01:31;10.15;;;3.88;;
56667;SDS011;42542;48.360;10.958;2023-11-21T15:04:52;6.70;;;2.50;;
56667;SDS011;42542;48.360;10.958;2023-11-21T15:08:01;6.72;;;2.58;;
56667;SDS011;42542;48.360;10.958;2023-11-21T15:11:23;8.00;;;3.10;;
56667;SDS011;42542;48.360;10.958;2023-11-21T15:14:32;8.27;;;3.33;;
56667;SDS011;42542;48.360;10.958;2023-11-21T15:17:36;7.30;;;3.00;;
56667;SDS011;42542;48.360;10.958;2023-11-21T15:20:42;8.07;;;3.00;;
56667;SDS011;42542;48.360;10.958;2023-11-21T15:23:44;7.57;;;2.88;;
56667;SDS011;42542;48.360;10.958;2023-11-21T15:26:46;7.60;;;2.70;;
56667;SDS011;42542;48.360;10.958;2023-11-21T15:29:48;7.00;;;2.70;;
56667;SDS011;42542;48.360;10.958;2023-11-21T15:32:51;7.28;;;2.70;;
56667;SDS011;42542;48.360;10.958;2023-11-21T15:35:55;9.97;;;4.80;;
56667;SDS011;42542;48.360;10.958;2023-11-21T15:38:57;10.20;;;3.92;;
56667;SDS011;42542;48.360;10.958;2023-11-21T15:41:59;8.02;;;2.75;;
56667;SDS011;42542;48.360;10.958;2023-11-21T15:45:02;7.53;;;2.08;;
56667;SDS011;42542;48.360;10.958;2023-11-21T15:48:06;5.93;;;1.80;;
56667;SDS011;42542;48.360;10.958;2023-11-21T15:51:08;11.27;;;2.15;;
56667;SDS011;42542;48.360;10.958;2023-11-21T15:54:13;7.90;;;2.40;;
56667;SDS011;42542;48.360;10.958;2023-11-21T15:57:16;7.37;;;2.73;;
56667;SDS011;42542;48.360;10.958;2023-11-21T16:00:19;6.60;;;2.17;;
56667;SDS011;42542;48.360;10.958;2023-11-21T16:03:24;5.90;;;2.13;;
56667;SDS011;42542;48.360;10.958;2023-11-21T16:06:27;5.70;;;1.87;;
56667;SDS011;42542;48.360;10.958;2023-11-21T16:09:31;5.80;;;1.80;;
56667;SDS011;42542;48.360;10.958;2023-11-21T16:12:33;5.20;;;2.00;;
56667;SDS011;42542;48.360;10.958;2023-11-21T16:15:35;5.97;;;2.20;;
56667;SDS011;42542;48.360;10.958;2023-11-21T16:18:37;7.63;;;2.20;;
56667;SDS011;42542;48.360;10.958;2023-11-21T16:21:39;10.40;;;3.28;;
56667;SDS011;42542;48.360;10.958;2023-11-21T16:24:40;6.72;;;2.30;;
56667;SDS011;42542;48.360;10.958;2023-11-21T16:27:42;7.20;;;1.80;;
56667;SDS011;42542;48.360;10.958;2023-11-21T16:30:44;6.47;;;2.15;;
56667;SDS011;42542;48.360;10.958;2023-11-21T16:33:46;6.40;;;2.08;;
56667;SDS011;42542;48.360;10.958;2023-11-21T16:36:48;7.00;;;2.30;;
56667;SDS011;42542;48.360;10.958;2023-11-21T16:39:50;6.63;;;2.25;;
56667;SDS011;42542;48.360;10.958;2023-11-21T16:42:54;8.27;;;2.78;;
56667;SDS011;42542;48.360;10.958;2023-11-21T16:45:56;8.05;;;2.75;;
56667;SDS011;42542;48.360;10.958;2023-11-21T16:48:58;7.45;;;2.75;;
56667;SDS011;42542;48.360;10.958;2023-11-21T16:51:59;8.30;;;2.67;;
56667;SDS011;42542;48.360;10.958;2023-11-21T16:55:05;11.82;;;4.65;;
56667;SDS011;42542;48.360;10.958;2023-11-21T16:58:06;16.97;;;5.90;;
56667;SDS011;42542;48.360;10.958;2023-11-21T17:01:08;18.20;;;5.70;;
56667;SDS011;42542;48.360;10.958;2023-11-21T17:04:10;26.30;;;8.57;;
56667;SDS011;42542;48.360;10.958;2023-11-21T17:07:16;30.33;;;11.00;;
56667;SDS011;42542;48.360;10.958;2023-11-21T17:10:21;16.75;;;6.43;;
56667;SDS011;42542;48.360;10.958;2023-11-21T17:13:23;9.05;;;2.83;;
56667;SDS011;42542;48.360;10.958;2023-11-21T17:16:25;10.73;;;4.00;;
56667;SDS011;42542;48.360;10.958;2023-11-21T17:19:27;7.90;;;3.00;;
56667;SDS011;42542;48.360;10.958;2023-11-21T17:22:33;8.13;;;2.80;;
56667;SDS011;42542;48.360;10.958;2023-11-21T17:25:36;8.93;;;3.60;;
56667;SDS011;42542;48.360;10.958;2023-11-21T17:28:38;11.70;;;4.97;;
56667;SDS011;42542;48.360;10.958;2023-11-21T17:31:40;10.77;;;4.25;;
56667;SDS011;42542;48.360;10.958;2023-11-21T17:34:42;7.80;;;3.20;;
56667;SDS011;42542;48.360;10.958;2023-11-21T17:37:43;9.23;;;3.50;;
56667;SDS011;42542;48.360;10.958;2023-11-21T17:40:46;9.27;;;3.38;;
56667;SDS011;42542;48.360;10.958;2023-11-21T17:43:48;8.68;;;3.10;;
56667;SDS011;42542;48.360;10.958;2023-11-21T17:46:51;7.75;;;3.28;;
56667;SDS011;42542;48.360;10.958;2023-11-21T17:49:52;8.45;;;2.80;;
56667;SDS011;42542;48.360;10.958;2023-11-21T17:52:55;8.63;;;3.42;;
56667;SDS011;42542;48.360;10.958;2023-11-21T17:55:58;9.32;;;2.85;;
56667;SDS011;42542;48.360;10.958;2023-11-21T17:59:00;7.13;;;2.40;;
56667;SDS011;42542;48.360;10.958;2023-11-21T18:02:04;6.10;;;2.35;;
56667;SDS011;42542;48.360;10.958;2023-11-21T18:05:07;7.97;;;2.85;;
56667;SDS011;42542;48.360;10.958;2023-11-21T18:08:15;7.47;;;2.63;;
56667;SDS011;42542;48.360;10.958;2023-11-21T18:11:16;7.47;;;2.65;;
56667;SDS011;42542;48.360;10.958;2023-11-21T18:14:19;7.50;;;2.70;;
56667;SDS011;42542;48.360;10.958;2023-11-21T18:17:20;11.38;;;3.58;;